sensor_id;sensor_type;location;lat;lon;timestamp;pressure;altitude;pressure_sealevel;temperature;humidity
71903;BME280;59778;50.310;18.780;2023-02-18T00:11:37;98494.25;;;9.29;98.63
71903;BME280;59778;50.310;18.780;2023-02-18T00:26:58;98564.03;;;9.63;96.99
71903;BME280;59778;50.310;18.780;2023-02-18T00:42:20;98612.28;;;9.17;96.30
71903;BME280;59778;50.310;18.780;2023-02-18T00:57:41;98599.81;;;9.02;97.22
71903;BME280;59778;50.310;18.780;2023-02-18T01:13:02;98620.84;;;8.99;94.41
71903;BME280;59778;50.310;18.780;2023-02-18T01:28:26;98625.78;;;9.11;88.53
71903;BME280;59778;50.310;18.780;2023-02-18T01:43:48;98643.91;;;8.95;83.19
71903;BME280;59778;50.310;18.780;2023-02-18T01:59:13;98641.09;;;9.04;74.75
71903;BME280;59778;50.310;18.780;2023-02-18T03:01:50;98658.66;;;8.49;71.46
71903;BME280;59778;50.310;18.780;2023-02-18T03:18:15;98682.44;;;8.16;76.40
71903;BME280;59778;50.310;18.780;2023-02-18T03:33:14;98703.13;;;7.55;91.14
71903;BME280;59778;50.310;18.780;2023-02-18T03:48:37;98698.66;;;7.40;90.92
71903;BME280;59778;50.310;18.780;2023-02-18T04:03:59;98702.88;;;7.96;63.06
71903;BME280;59778;50.310;18.780;2023-02-18T04:19:20;98732.88;;;7.78;56.60
71903;BME280;59778;50.310;18.780;2023-02-18T04:34:41;98732.19;;;7.84;52.20
71903;BME280;59778;50.310;18.780;2023-02-18T04:50:03;98748.13;;;7.40;55.63
71903;BME280;59778;50.310;18.780;2023-02-18T05:05:25;98749.09;;;7.47;53.04
71903;BME280;59778;50.310;18.780;2023-02-18T05:20:46;98760.00;;;7.23;53.22
71903;BME280;59778;50.310;18.780;2023-02-18T05:36:07;98761.75;;;7.08;53.86
71903;BME280;59778;50.310;18.780;2023-02-18T05:51:29;98771.88;;;7.14;52.97
71903;BME280;59778;50.310;18.780;2023-02-18T06:06:50;98758.44;;;7.37;52.33
71903;BME280;59778;50.310;18.780;2023-02-18T06:22:11;98776.59;;;7.59;49.50
71903;BME280;59778;50.310;18.780;2023-02-18T06:37:33;98789.75;;;7.62;49.97
71903;BME280;59778;50.310;18.780;2023-02-18T06:52:57;98791.34;;;7.79;50.04
71903;BME280;59778;50.310;18.780;2023-02-18T07:08:19;98802.59;;;7.91;49.40
71903;BME280;59778;50.310;18.780;2023-02-18T07:23:40;98799.31;;;8.03;48.26
71903;BME280;59778;50.310;18.780;2023-02-18T07:39:02;98794.66;;;7.97;49.97
71903;BME280;59778;50.310;18.780;2023-02-18T07:54:25;98808.59;;;8.09;49.84
71903;BME280;59778;50.310;18.780;2023-02-18T08:09:47;98805.69;;;8.11;50.31
71903;BME280;59778;50.310;18.780;2023-02-18T08:25:10;98800.13;;;8.12;50.84
71903;BME280;59778;50.310;18.780;2023-02-18T08:40:32;98822.47;;;8.06;54.50
71903;BME280;59778;50.310;18.780;2023-02-18T08:55:54;98819.38;;;8.17;56.76
71903;BME280;59778;50.310;18.780;2023-02-18T09:11:16;98805.13;;;8.23;59.17
71903;BME280;59778;50.310;18.780;2023-02-18T09:26:38;98817.00;;;8.14;62.89
71903;BME280;59778;50.310;18.780;2023-02-18T09:42:06;98800.91;;;8.29;60.02
71903;BME280;59778;50.310;18.780;2023-02-18T09:57:41;98784.06;;;8.11;60.10
71903;BME280;59778;50.310;18.780;2023-02-18T10:13:13;98782.19;;;8.11;63.17
71903;BME280;59778;50.310;18.780;2023-02-18T10:28:41;98785.50;;;7.68;66.13
71903;BME280;59778;50.310;18.780;2023-02-18T11:15:33;98744.16;;;6.49;85.79
71903;BME280;59778;50.310;18.780;2023-02-18T11:30:58;98717.72;;;6.20;86.26
71903;BME280;59778;50.310;18.780;2023-02-18T11:46:23;98685.88;;;6.07;90.50
71903;BME280;59778;50.310;18.780;2023-02-18T12:01:53;98648.44;;;6.04;91.84
71903;BME280;59778;50.310;18.780;2023-02-18T13:05:06;98492.72;;;6.61;97.11
71903;BME280;59778;50.310;18.780;2023-02-18T13:36:05;98413.81;;;6.29;100.00
71903;BME280;59778;50.310;18.780;2023-02-18T13:51:37;98381.34;;;5.83;100.00
71903;BME280;59778;50.310;18.780;2023-02-18T14:22:50;98310.28;;;5.84;100.00
71903;BME280;59778;50.310;18.780;2023-02-18T14:38:23;98245.50;;;5.69;100.00
71903;BME280;59778;50.310;18.780;2023-02-18T14:53:48;98210.38;;;5.63;100.00
71903;BME280;59778;50.310;18.780;2023-02-18T15:09:20;98178.41;;;5.83;100.00
71903;BME280;59778;50.310;18.780;2023-02-18T15:24:42;98162.25;;;6.05;100.00
71903;BME280;59778;50.310;18.780;2023-02-18T15:40:13;98116.78;;;6.40;100.00
71903;BME280;59778;50.310;18.780;2023-02-18T15:55:43;98097.13;;;6.90;100.00
71903;BME280;59778;50.310;18.780;2023-02-18T16:11:09;98083.94;;;7.16;100.00
71903;BME280;59778;50.310;18.780;2023-02-18T16:42:00;98109.19;;;8.36;100.00
71903;BME280;59778;50.310;18.780;2023-02-18T16:57:22;98110.78;;;8.58;100.00
71903;BME280;59778;50.310;18.780;2023-02-18T17:12:43;98118.28;;;8.97;100.00
71903;BME280;59778;50.310;18.780;2023-02-18T17:28:06;98119.38;;;9.03;100.00
71903;BME280;59778;50.310;18.780;2023-02-18T17:43:30;98152.31;;;9.13;98.55
71903;BME280;59778;50.310;18.780;2023-02-18T17:58:51;98161.47;;;9.05;97.18
71903;BME280;59778;50.310;18.780;2023-02-18T18:14:13;98170.09;;;9.22;93.19
71903;BME280;59778;50.310;18.780;2023-02-18T18:29:36;98189.31;;;9.33;90.08
71903;BME280;59778;50.310;18.780;2023-02-18T18:44:57;98193.56;;;9.49;86.45
71903;BME280;59778;50.310;18.780;2023-02-18T19:00:25;98213.78;;;9.53;85.44
71903;BME280;59778;50.310;18.780;2023-02-18T19:15:48;98225.31;;;9.62;83.38
71903;BME280;59778;50.310;18.780;2023-02-18T19:31:10;98257.31;;;9.38;86.56
71903;BME280;59778;50.310;18.780;2023-02-18T19:46:31;98241.88;;;9.39;85.49
71903;BME280;59778;50.310;18.780;2023-02-18T20:01:53;98259.44;;;9.50;84.05
71903;BME280;59778;50.310;18.780;2023-02-18T20:17:14;98265.72;;;9.50;83.98
71903;BME280;59778;50.310;18.780;2023-02-18T20:32:36;98275.78;;;9.63;84.09
71903;BME280;59778;50.310;18.780;2023-02-18T20:47:58;98351.22;;;9.25;89.54
71903;BME280;59778;50.310;18.780;2023-02-18T21:03:19;98411.31;;;7.99;100.00
71903;BME280;59778;50.310;18.780;2023-02-18T21:18:40;98429.03;;;7.58;100.00
71903;BME280;59778;50.310;18.780;2023-02-18T21:34:04;98443.41;;;7.36;100.00
71903;BME280;59778;50.310;18.780;2023-02-18T21:49:27;98461.97;;;7.16;100.00
71903;BME280;59778;50.310;18.780;2023-02-18T22:04:49;98500.03;;;7.06;100.00
71903;BME280;59778;50.310;18.780;2023-02-18T22:20:13;98495.53;;;6.99;100.00
71903;BME280;59778;50.310;18.780;2023-02-18T22:35:34;98522.75;;;6.89;100.00
71903;BME280;59778;50.310;18.780;2023-02-18T22:50:55;98545.84;;;6.92;100.00
71903;BME280;59778;50.310;18.780;2023-02-18T23:06:18;98555.78;;;6.91;100.00
71903;BME280;59778;50.310;18.780;2023-02-18T23:21:40;98575.72;;;6.90;100.00
71903;BME280;59778;50.310;18.780;2023-02-18T23:37:01;98583.22;;;6.72;100.00
71903;BME280;59778;50.310;18.780;2023-02-18T23:52:22;98571.91;;;6.77;100.00
